sensor_id;sensor_type;location;lat;lon;timestamp;P1;durP1;ratioP1;P2;durP2;ratioP2
32932;SDS011;19444;50.518;10.870;2022-10-15T00:02:07;1.17;;;0.82;;
32932;SDS011;19444;50.518;10.870;2022-10-15T00:05:04;2.03;;;0.82;;
32932;SDS011;19444;50.518;10.870;2022-10-15T00:08:01;1.52;;;1.10;;
32932;SDS011;19444;50.518;10.870;2022-10-15T00:11:03;3.45;;;1.45;;
32932;SDS011;19444;50.518;10.870;2022-10-15T00:14:06;2.53;;;1.60;;
32932;SDS011;19444;50.518;10.870;2022-10-15T00:17:03;3.53;;;1.80;;
32932;SDS011;19444;50.518;10.870;2022-10-15T00:20:00;6.10;;;2.50;;
32932;SDS011;19444;50.518;10.870;2022-10-15T00:23:02;3.55;;;2.60;;
32932;SDS011;19444;50.518;10.870;2022-10-15T00:29:02;3.75;;;2.40;;
32932;SDS011;19444;50.518;10.870;2022-10-15T00:32:00;3.47;;;2.10;;
32932;SDS011;19444;50.518;10.870;2022-10-15T00:34:56;2.42;;;1.73;;
32932;SDS011;19444;50.518;10.870;2022-10-15T00:37:53;3.22;;;2.13;;
32932;SDS011;19444;50.518;10.870;2022-10-15T00:40:50;3.88;;;1.80;;
32932;SDS011;19444;50.518;10.870;2022-10-15T00:43:48;2.55;;;1.40;;
32932;SDS011;19444;50.518;10.870;2022-10-15T00:47:04;1.98;;;1.20;;
32932;SDS011;19444;50.518;10.870;2022-10-15T00:50:21;2.35;;;1.27;;
32932;SDS011;19444;50.518;10.870;2022-10-15T00:53:20;2.55;;;1.30;;
32932;SDS011;19444;50.518;10.870;2022-10-15T00:56:18;2.28;;;1.20;;
32932;SDS011;19444;50.518;10.870;2022-10-15T01:02:19;1.67;;;0.80;;
32932;SDS011;19444;50.518;10.870;2022-10-15T01:05:17;1.98;;;0.90;;
32932;SDS011;19444;50.518;10.870;2022-10-15T01:08:14;1.63;;;0.73;;
32932;SDS011;19444;50.518;10.870;2022-10-15T01:14:55;4.53;;;3.17;;
32932;SDS011;19444;50.518;10.870;2022-10-15T01:21:18;3.90;;;2.72;;
32932;SDS011;19444;50.518;10.870;2022-10-15T01:24:48;8.88;;;7.50;;
32932;SDS011;19444;50.518;10.870;2022-10-15T01:42:04;1.10;;;0.80;;
32932;SDS011;19444;50.518;10.870;2022-10-15T01:45:14;0.90;;;0.60;;
32932;SDS011;19444;50.518;10.870;2022-10-15T01:48:20;1.42;;;0.90;;
32932;SDS011;19444;50.518;10.870;2022-10-15T01:51:21;1.90;;;0.90;;
32932;SDS011;19444;50.518;10.870;2022-10-15T01:54:21;2.25;;;1.20;;
32932;SDS011;19444;50.518;10.870;2022-10-15T01:57:22;1.85;;;1.10;;
32932;SDS011;19444;50.518;10.870;2022-10-15T02:00:22;4.43;;;1.40;;
32932;SDS011;19444;50.518;10.870;2022-10-15T02:03:19;2.25;;;1.88;;
32932;SDS011;19444;50.518;10.870;2022-10-15T02:06:24;3.20;;;2.10;;
32932;SDS011;19444;50.518;10.870;2022-10-15T02:16:19;3.53;;;2.55;;
32932;SDS011;19444;50.518;10.870;2022-10-15T02:19:44;6.00;;;2.58;;
32932;SDS011;19444;50.518;10.870;2022-10-15T02:22:54;2.85;;;2.28;;
32932;SDS011;19444;50.518;10.870;2022-10-15T02:26:15;3.58;;;2.33;;
32932;SDS011;19444;50.518;10.870;2022-10-15T02:29:16;2.42;;;1.80;;
32932;SDS011;19444;50.518;10.870;2022-10-15T02:32:18;3.63;;;2.03;;
32932;SDS011;19444;50.518;10.870;2022-10-15T02:35:17;3.03;;;1.65;;
32932;SDS011;19444;50.518;10.870;2022-10-15T02:38:17;4.40;;;1.98;;
32932;SDS011;19444;50.518;10.870;2022-10-15T02:41:17;3.03;;;1.60;;
32932;SDS011;19444;50.518;10.870;2022-10-15T02:44:15;1.80;;;1.38;;
32932;SDS011;19444;50.518;10.870;2022-10-15T02:47:12;3.13;;;1.40;;
32932;SDS011;19444;50.518;10.870;2022-10-15T02:50:10;1.33;;;1.05;;
32932;SDS011;19444;50.518;10.870;2022-10-15T02:53:07;2.42;;;1.15;;
32932;SDS011;19444;50.518;10.870;2022-10-15T02:56:04;1.30;;;0.98;;
32932;SDS011;19444;50.518;10.870;2022-10-15T02:59:01;2.63;;;0.95;;
32932;SDS011;19444;50.518;10.870;2022-10-15T03:01:58;1.63;;;0.98;;
32932;SDS011;19444;50.518;10.870;2022-10-15T03:04:54;1.48;;;1.00;;
32932;SDS011;19444;50.518;10.870;2022-10-15T03:07:51;1.67;;;0.60;;
32932;SDS011;19444;50.518;10.870;2022-10-15T03:10:49;1.90;;;0.85;;
32932;SDS011;19444;50.518;10.870;2022-10-15T03:13:46;2.38;;;0.80;;
32932;SDS011;19444;50.518;10.870;2022-10-15T03:16:43;1.52;;;0.73;;
32932;SDS011;19444;50.518;10.870;2022-10-15T03:19:40;1.00;;;0.70;;
32932;SDS011;19444;50.518;10.870;2022-10-15T03:22:36;2.88;;;1.02;;
32932;SDS011;19444;50.518;10.870;2022-10-15T03:25:33;2.63;;;1.27;;
32932;SDS011;19444;50.518;10.870;2022-10-15T03:28:30;1.58;;;0.90;;
32932;SDS011;19444;50.518;10.870;2022-10-15T03:31:27;1.45;;;0.82;;
32932;SDS011;19444;50.518;10.870;2022-10-15T03:34:24;2.03;;;1.00;;
32932;SDS011;19444;50.518;10.870;2022-10-15T03:37:21;1.77;;;0.93;;
32932;SDS011;19444;50.518;10.870;2022-10-15T03:40:18;2.45;;;0.60;;
32932;SDS011;19444;50.518;10.870;2022-10-15T03:43:15;3.28;;;0.90;;
32932;SDS011;19444;50.518;10.870;2022-10-15T03:46:12;1.38;;;0.70;;
32932;SDS011;19444;50.518;10.870;2022-10-15T03:49:09;2.65;;;0.98;;
32932;SDS011;19444;50.518;10.870;2022-10-15T03:52:06;1.33;;;0.90;;
32932;SDS011;19444;50.518;10.870;2022-10-15T03:55:03;2.13;;;1.20;;
32932;SDS011;19444;50.518;10.870;2022-10-15T03:58:01;1.60;;;1.13;;
32932;SDS011;19444;50.518;10.870;2022-10-15T04:00:58;2.97;;;1.35;;
32932;SDS011;19444;50.518;10.870;2022-10-15T04:03:55;1.67;;;1.00;;
32932;SDS011;19444;50.518;10.870;2022-10-15T04:06:52;1.63;;;1.05;;
32932;SDS011;19444;50.518;10.870;2022-10-15T04:09:49;2.03;;;1.00;;
32932;SDS011;19444;50.518;10.870;2022-10-15T04:12:46;1.90;;;1.10;;
32932;SDS011;19444;50.518;10.870;2022-10-15T04:15:42;3.15;;;1.20;;
32932;SDS011;19444;50.518;10.870;2022-10-15T04:18:39;1.17;;;0.80;;
32932;SDS011;19444;50.518;10.870;2022-10-15T04:21:36;1.83;;;1.08;;
32932;SDS011;19444;50.518;10.870;2022-10-15T04:24:33;3.03;;;1.10;;
32932;SDS011;19444;50.518;10.870;2022-10-15T04:27:30;1.85;;;1.20;;
32932;SDS011;19444;50.518;10.870;2022-10-15T04:30:27;2.05;;;1.60;;
32932;SDS011;19444;50.518;10.870;2022-10-15T04:33:24;1.90;;;1.30;;
32932;SDS011;19444;50.518;10.870;2022-10-15T04:36:21;3.03;;;1.50;;
32932;SDS011;19444;50.518;10.870;2022-10-15T04:39:18;2.35;;;1.40;;
32932;SDS011;19444;50.518;10.870;2022-10-15T04:42:15;2.45;;;1.30;;
32932;SDS011;19444;50.518;10.870;2022-10-15T04:45:12;2.90;;;1.65;;
32932;SDS011;19444;50.518;10.870;2022-10-15T04:48:09;3.35;;;1.33;;
32932;SDS011;19444;50.518;10.870;2022-10-15T04:51:06;2.72;;;1.10;;
32932;SDS011;19444;50.518;10.870;2022-10-15T04:54:08;2.35;;;1.20;;
32932;SDS011;19444;50.518;10.870;2022-10-15T04:57:05;2.47;;;1.15;;
32932;SDS011;19444;50.518;10.870;2022-10-15T05:00:02;3.88;;;1.17;;
32932;SDS011;19444;50.518;10.870;2022-10-15T05:03:01;1.95;;;0.80;;
32932;SDS011;19444;50.518;10.870;2022-10-15T05:05:58;2.65;;;1.35;;
32932;SDS011;19444;50.518;10.870;2022-10-15T05:08:57;3.05;;;0.70;;
32932;SDS011;19444;50.518;10.870;2022-10-15T05:11:54;3.10;;;0.70;;
32932;SDS011;19444;50.518;10.870;2022-10-15T05:14:51;1.50;;;0.80;;
32932;SDS011;19444;50.518;10.870;2022-10-15T05:17:48;2.42;;;0.80;;
32932;SDS011;19444;50.518;10.870;2022-10-15T05:20:45;2.60;;;1.23;;
32932;SDS011;19444;50.518;10.870;2022-10-15T05:23:42;1.85;;;0.70;;
32932;SDS011;19444;50.518;10.870;2022-10-15T05:26:39;3.08;;;0.82;;
32932;SDS011;19444;50.518;10.870;2022-10-15T05:29:37;1.35;;;0.50;;
32932;SDS011;19444;50.518;10.870;2022-10-15T05:32:34;1.38;;;0.60;;
32932;SDS011;19444;50.518;10.870;2022-10-15T05:35:31;1.98;;;0.90;;
32932;SDS011;19444;50.518;10.870;2022-10-15T05:38:28;1.60;;;0.60;;
32932;SDS011;19444;50.518;10.870;2022-10-15T05:41:26;1.48;;;0.70;;
32932;SDS011;19444;50.518;10.870;2022-10-15T05:44:24;2.33;;;0.30;;
32932;SDS011;19444;50.518;10.870;2022-10-15T05:47:21;1.83;;;0.40;;
32932;SDS011;19444;50.518;10.870;2022-10-15T05:50:18;2.83;;;0.80;;
32932;SDS011;19444;50.518;10.870;2022-10-15T05:53:15;4.40;;;0.45;;
32932;SDS011;19444;50.518;10.870;2022-10-15T05:56:12;0.90;;;0.50;;
32932;SDS011;19444;50.518;10.870;2022-10-15T05:59:10;3.10;;;0.47;;
32932;SDS011;19444;50.518;10.870;2022-10-15T06:02:08;3.78;;;0.40;;
32932;SDS011;19444;50.518;10.870;2022-10-15T06:05:11;1.65;;;0.90;;
32932;SDS011;19444;50.518;10.870;2022-10-15T06:08:08;2.20;;;1.23;;
32932;SDS011;19444;50.518;10.870;2022-10-15T06:11:04;2.83;;;1.05;;
32932;SDS011;19444;50.518;10.870;2022-10-15T06:14:04;1.90;;;0.55;;
32932;SDS011;19444;50.518;10.870;2022-10-15T06:17:01;1.80;;;1.13;;
32932;SDS011;19444;50.518;10.870;2022-10-15T06:19:58;2.00;;;1.17;;
32932;SDS011;19444;50.518;10.870;2022-10-15T06:22:58;2.55;;;1.50;;
32932;SDS011;19444;50.518;10.870;2022-10-15T06:26:00;2.25;;;1.50;;
32932;SDS011;19444;50.518;10.870;2022-10-15T06:29:02;6.57;;;4.38;;
32932;SDS011;19444;50.518;10.870;2022-10-15T06:31:59;4.22;;;2.30;;
32932;SDS011;19444;50.518;10.870;2022-10-15T06:34:56;5.45;;;2.85;;
32932;SDS011;19444;50.518;10.870;2022-10-15T06:37:53;3.63;;;2.42;;
32932;SDS011;19444;50.518;10.870;2022-10-15T06:40:58;3.72;;;2.30;;
32932;SDS011;19444;50.518;10.870;2022-10-15T06:43:55;4.85;;;2.30;;
32932;SDS011;19444;50.518;10.870;2022-10-15T06:46:52;3.35;;;2.00;;
32932;SDS011;19444;50.518;10.870;2022-10-15T06:49:49;3.60;;;2.38;;
32932;SDS011;19444;50.518;10.870;2022-10-15T06:52:46;4.95;;;2.13;;
32932;SDS011;19444;50.518;10.870;2022-10-15T06:55:43;3.53;;;2.00;;
32932;SDS011;19444;50.518;10.870;2022-10-15T06:58:40;3.35;;;1.83;;
32932;SDS011;19444;50.518;10.870;2022-10-15T07:01:38;3.17;;;1.90;;
32932;SDS011;19444;50.518;10.870;2022-10-15T07:04:37;3.47;;;1.77;;
32932;SDS011;19444;50.518;10.870;2022-10-15T07:07:34;3.67;;;2.30;;
32932;SDS011;19444;50.518;10.870;2022-10-15T07:10:31;4.03;;;2.60;;
32932;SDS011;19444;50.518;10.870;2022-10-15T07:13:29;2.47;;;1.50;;
32932;SDS011;19444;50.518;10.870;2022-10-15T07:16:26;2.33;;;1.30;;
32932;SDS011;19444;50.518;10.870;2022-10-15T07:19:22;1.95;;;1.15;;
32932;SDS011;19444;50.518;10.870;2022-10-15T07:22:20;1.85;;;1.15;;
32932;SDS011;19444;50.518;10.870;2022-10-15T07:25:17;1.58;;;1.00;;
32932;SDS011;19444;50.518;10.870;2022-10-15T07:28:14;2.35;;;1.60;;
32932;SDS011;19444;50.518;10.870;2022-10-15T07:31:11;1.83;;;1.40;;
32932;SDS011;19444;50.518;10.870;2022-10-15T07:34:08;2.15;;;1.20;;
32932;SDS011;19444;50.518;10.870;2022-10-15T07:37:05;1.40;;;0.80;;
32932;SDS011;19444;50.518;10.870;2022-10-15T07:40:02;2.08;;;0.98;;
32932;SDS011;19444;50.518;10.870;2022-10-15T07:42:59;1.38;;;0.90;;
32932;SDS011;19444;50.518;10.870;2022-10-15T07:45:56;2.17;;;1.40;;
32932;SDS011;19444;50.518;10.870;2022-10-15T07:48:53;1.98;;;1.08;;
32932;SDS011;19444;50.518;10.870;2022-10-15T07:51:50;2.00;;;1.23;;
32932;SDS011;19444;50.518;10.870;2022-10-15T07:54:47;1.60;;;1.15;;
32932;SDS011;19444;50.518;10.870;2022-10-15T07:57:44;2.00;;;1.08;;
32932;SDS011;19444;50.518;10.870;2022-10-15T08:00:41;2.13;;;0.95;;
32932;SDS011;19444;50.518;10.870;2022-10-15T08:03:38;1.75;;;0.93;;
32932;SDS011;19444;50.518;10.870;2022-10-15T08:06:35;1.85;;;0.80;;
32932;SDS011;19444;50.518;10.870;2022-10-15T08:09:32;1.60;;;0.80;;
32932;SDS011;19444;50.518;10.870;2022-10-15T08:12:29;1.50;;;0.90;;
32932;SDS011;19444;50.518;10.870;2022-10-15T08:15:26;2.70;;;1.60;;
32932;SDS011;19444;50.518;10.870;2022-10-15T08:18:23;3.38;;;1.60;;
32932;SDS011;19444;50.518;10.870;2022-10-15T08:21:20;5.90;;;3.33;;
32932;SDS011;19444;50.518;10.870;2022-10-15T08:24:16;4.00;;;2.53;;
32932;SDS011;19444;50.518;10.870;2022-10-15T08:27:13;4.80;;;3.00;;
32932;SDS011;19444;50.518;10.870;2022-10-15T08:30:10;10.07;;;6.93;;
32932;SDS011;19444;50.518;10.870;2022-10-15T08:33:07;3.10;;;2.20;;
32932;SDS011;19444;50.518;10.870;2022-10-15T08:36:04;1.38;;;0.68;;
32932;SDS011;19444;50.518;10.870;2022-10-15T08:39:02;1.60;;;0.90;;
32932;SDS011;19444;50.518;10.870;2022-10-15T08:42:03;1.70;;;0.70;;
32932;SDS011;19444;50.518;10.870;2022-10-15T08:45:14;0.93;;;0.60;;
32932;SDS011;19444;50.518;10.870;2022-10-15T08:48:21;1.45;;;0.80;;
32932;SDS011;19444;50.518;10.870;2022-10-15T08:51:27;0.95;;;0.65;;
32932;SDS011;19444;50.518;10.870;2022-10-15T08:54:40;2.88;;;1.00;;
32932;SDS011;19444;50.518;10.870;2022-10-15T08:58:20;1.77;;;1.27;;
32932;SDS011;19444;50.518;10.870;2022-10-15T09:04:54;8.88;;;4.93;;
32932;SDS011;19444;50.518;10.870;2022-10-15T09:08:31;8.18;;;6.70;;
32932;SDS011;19444;50.518;10.870;2022-10-15T09:12:05;2.80;;;2.35;;
32932;SDS011;19444;50.518;10.870;2022-10-15T09:15:16;2.50;;;1.95;;
32932;SDS011;19444;50.518;10.870;2022-10-15T09:18:21;3.08;;;1.75;;
32932;SDS011;19444;50.518;10.870;2022-10-15T09:21:22;2.33;;;1.52;;
32932;SDS011;19444;50.518;10.870;2022-10-15T09:24:24;3.85;;;2.20;;
32932;SDS011;19444;50.518;10.870;2022-10-15T09:30:36;3.47;;;2.10;;
32932;SDS011;19444;50.518;10.870;2022-10-15T09:36:57;3.92;;;2.47;;
32932;SDS011;19444;50.518;10.870;2022-10-15T09:43:24;3.17;;;2.60;;
32932;SDS011;19444;50.518;10.870;2022-10-15T09:46:30;3.63;;;2.78;;
32932;SDS011;19444;50.518;10.870;2022-10-15T09:49:27;5.47;;;3.83;;
32932;SDS011;19444;50.518;10.870;2022-10-15T09:56:09;3.42;;;2.30;;
32932;SDS011;19444;50.518;10.870;2022-10-15T09:59:19;3.72;;;2.58;;
32932;SDS011;19444;50.518;10.870;2022-10-15T10:02:19;5.47;;;3.22;;
32932;SDS011;19444;50.518;10.870;2022-10-15T10:05:30;3.75;;;2.65;;
32932;SDS011;19444;50.518;10.870;2022-10-15T10:08:31;5.72;;;3.70;;
32932;SDS011;19444;50.518;10.870;2022-10-15T10:11:52;5.50;;;3.88;;
32932;SDS011;19444;50.518;10.870;2022-10-15T10:15:03;6.97;;;5.17;;
32932;SDS011;19444;50.518;10.870;2022-10-15T10:18:00;7.38;;;4.93;;
32932;SDS011;19444;50.518;10.870;2022-10-15T10:21:01;3.80;;;2.92;;
32932;SDS011;19444;50.518;10.870;2022-10-15T10:27:28;5.90;;;4.53;;
32932;SDS011;19444;50.518;10.870;2022-10-15T10:30:25;3.95;;;3.05;;
32932;SDS011;19444;50.518;10.870;2022-10-15T10:33:26;5.85;;;3.30;;
32932;SDS011;19444;50.518;10.870;2022-10-15T10:36:41;3.95;;;3.33;;
32932;SDS011;19444;50.518;10.870;2022-10-15T10:39:39;3.88;;;2.60;;
32932;SDS011;19444;50.518;10.870;2022-10-15T10:42:40;4.10;;;2.50;;
32932;SDS011;19444;50.518;10.870;2022-10-15T10:45:36;3.15;;;2.38;;
32932;SDS011;19444;50.518;10.870;2022-10-15T10:48:46;3.38;;;2.88;;
32932;SDS011;19444;50.518;10.870;2022-10-15T10:51:48;3.65;;;2.88;;
32932;SDS011;19444;50.518;10.870;2022-10-15T10:54:46;3.13;;;2.33;;
32932;SDS011;19444;50.518;10.870;2022-10-15T10:57:49;2.97;;;2.30;;
32932;SDS011;19444;50.518;10.870;2022-10-15T11:00:52;2.60;;;2.40;;
32932;SDS011;19444;50.518;10.870;2022-10-15T11:03:52;2.65;;;2.10;;
32932;SDS011;19444;50.518;10.870;2022-10-15T11:10:15;1.92;;;1.73;;
32932;SDS011;19444;50.518;10.870;2022-10-15T11:16:57;2.63;;;1.88;;
32932;SDS011;19444;50.518;10.870;2022-10-15T11:24:04;1.17;;;0.90;;
32932;SDS011;19444;50.518;10.870;2022-10-15T11:30:30;1.20;;;0.90;;
32932;SDS011;19444;50.518;10.870;2022-10-15T11:37:40;1.10;;;0.80;;
32932;SDS011;19444;50.518;10.870;2022-10-15T11:44:29;1.30;;;0.80;;
32932;SDS011;19444;50.518;10.870;2022-10-15T11:50:56;0.57;;;0.50;;
32932;SDS011;19444;50.518;10.870;2022-10-15T11:57:35;0.80;;;0.60;;
32932;SDS011;19444;50.518;10.870;2022-10-15T12:00:38;1.60;;;1.30;;
32932;SDS011;19444;50.518;10.870;2022-10-15T12:03:50;2.10;;;1.85;;
32932;SDS011;19444;50.518;10.870;2022-10-15T12:06:59;0.88;;;0.60;;
32932;SDS011;19444;50.518;10.870;2022-10-15T12:10:04;1.63;;;1.08;;
32932;SDS011;19444;50.518;10.870;2022-10-15T12:13:09;1.00;;;0.52;;
32932;SDS011;19444;50.518;10.870;2022-10-15T12:16:43;1.15;;;0.80;;
32932;SDS011;19444;50.518;10.870;2022-10-15T12:19:59;1.17;;;0.60;;
32932;SDS011;19444;50.518;10.870;2022-10-15T12:23:20;0.70;;;0.50;;
32932;SDS011;19444;50.518;10.870;2022-10-15T12:29:20;2.10;;;0.60;;
32932;SDS011;19444;50.518;10.870;2022-10-15T12:32:23;1.60;;;1.10;;
32932;SDS011;19444;50.518;10.870;2022-10-15T12:35:24;0.85;;;0.60;;
32932;SDS011;19444;50.518;10.870;2022-10-15T12:38:34;1.30;;;0.70;;
32932;SDS011;19444;50.518;10.870;2022-10-15T12:41:46;1.52;;;0.90;;
32932;SDS011;19444;50.518;10.870;2022-10-15T12:44:46;1.65;;;0.75;;
32932;SDS011;19444;50.518;10.870;2022-10-15T12:47:50;1.98;;;0.75;;
32932;SDS011;19444;50.518;10.870;2022-10-15T13:00:36;2.33;;;2.10;;
32932;SDS011;19444;50.518;10.870;2022-10-15T13:03:36;2.00;;;1.38;;
32932;SDS011;19444;50.518;10.870;2022-10-15T13:06:47;3.95;;;2.00;;
32932;SDS011;19444;50.518;10.870;2022-10-15T13:09:45;5.43;;;4.60;;
32932;SDS011;19444;50.518;10.870;2022-10-15T13:12:42;8.88;;;7.25;;
32932;SDS011;19444;50.518;10.870;2022-10-15T13:15:38;9.60;;;6.70;;
32932;SDS011;19444;50.518;10.870;2022-10-15T13:18:36;8.43;;;5.40;;
32932;SDS011;19444;50.518;10.870;2022-10-15T13:21:56;7.38;;;4.05;;
32932;SDS011;19444;50.518;10.870;2022-10-15T13:24:59;3.88;;;2.85;;
32932;SDS011;19444;50.518;10.870;2022-10-15T13:27:56;2.40;;;1.67;;
32932;SDS011;19444;50.518;10.870;2022-10-15T13:30:53;4.68;;;3.35;;
32932;SDS011;19444;50.518;10.870;2022-10-15T13:33:54;3.67;;;2.78;;
32932;SDS011;19444;50.518;10.870;2022-10-15T13:37:14;3.83;;;1.80;;
32932;SDS011;19444;50.518;10.870;2022-10-15T13:40:22;4.13;;;2.28;;
32932;SDS011;19444;50.518;10.870;2022-10-15T13:43:24;2.60;;;1.80;;
32932;SDS011;19444;50.518;10.870;2022-10-15T13:46:22;3.00;;;2.70;;
32932;SDS011;19444;50.518;10.870;2022-10-15T13:49:20;1.13;;;1.00;;
32932;SDS011;19444;50.518;10.870;2022-10-15T13:55:20;3.83;;;2.15;;
32932;SDS011;19444;50.518;10.870;2022-10-15T13:58:20;2.88;;;2.38;;
32932;SDS011;19444;50.518;10.870;2022-10-15T14:01:23;2.95;;;1.60;;
32932;SDS011;19444;50.518;10.870;2022-10-15T14:04:22;1.65;;;1.48;;
32932;SDS011;19444;50.518;10.870;2022-10-15T14:07:22;2.88;;;1.77;;
32932;SDS011;19444;50.518;10.870;2022-10-15T14:10:23;2.53;;;1.13;;
32932;SDS011;19444;50.518;10.870;2022-10-15T14:13:20;4.00;;;3.40;;
32932;SDS011;19444;50.518;10.870;2022-10-15T14:16:34;1.65;;;1.30;;
32932;SDS011;19444;50.518;10.870;2022-10-15T14:19:37;7.95;;;6.20;;
32932;SDS011;19444;50.518;10.870;2022-10-15T14:22:35;3.75;;;1.70;;
32932;SDS011;19444;50.518;10.870;2022-10-15T14:25:32;4.95;;;2.50;;
32932;SDS011;19444;50.518;10.870;2022-10-15T14:28:29;2.03;;;1.70;;
32932;SDS011;19444;50.518;10.870;2022-10-15T14:40:37;3.58;;;3.22;;
32932;SDS011;19444;50.518;10.870;2022-10-15T14:43:35;3.80;;;3.30;;
32932;SDS011;19444;50.518;10.870;2022-10-15T14:46:39;4.05;;;3.15;;
32932;SDS011;19444;50.518;10.870;2022-10-15T14:49:39;6.97;;;6.10;;
32932;SDS011;19444;50.518;10.870;2022-10-15T14:52:36;6.35;;;3.35;;
32932;SDS011;19444;50.518;10.870;2022-10-15T14:55:46;7.57;;;5.32;;
32932;SDS011;19444;50.518;10.870;2022-10-15T14:58:49;4.38;;;3.42;;
32932;SDS011;19444;50.518;10.870;2022-10-15T15:01:50;8.32;;;5.90;;
32932;SDS011;19444;50.518;10.870;2022-10-15T15:08:24;6.50;;;3.65;;
32932;SDS011;19444;50.518;10.870;2022-10-15T15:11:22;6.97;;;4.28;;
32932;SDS011;19444;50.518;10.870;2022-10-15T15:14:24;5.38;;;3.10;;
32932;SDS011;19444;50.518;10.870;2022-10-15T15:20:23;5.57;;;3.45;;
32932;SDS011;19444;50.518;10.870;2022-10-15T15:23:24;3.97;;;3.10;;
32932;SDS011;19444;50.518;10.870;2022-10-15T15:26:22;6.70;;;4.30;;
32932;SDS011;19444;50.518;10.870;2022-10-15T15:29:19;4.10;;;3.17;;
32932;SDS011;19444;50.518;10.870;2022-10-15T15:32:16;1.83;;;1.45;;
32932;SDS011;19444;50.518;10.870;2022-10-15T15:38:48;2.30;;;1.27;;
32932;SDS011;19444;50.518;10.870;2022-10-15T15:41:45;8.40;;;5.38;;
32932;SDS011;19444;50.518;10.870;2022-10-15T15:44:42;1.90;;;1.60;;
32932;SDS011;19444;50.518;10.870;2022-10-15T15:47:39;2.75;;;1.55;;
32932;SDS011;19444;50.518;10.870;2022-10-15T15:50:36;4.72;;;2.85;;
32932;SDS011;19444;50.518;10.870;2022-10-15T15:53:33;5.57;;;2.67;;
32932;SDS011;19444;50.518;10.870;2022-10-15T15:56:30;4.20;;;2.67;;
32932;SDS011;19444;50.518;10.870;2022-10-15T15:59:30;5.25;;;3.53;;
32932;SDS011;19444;50.518;10.870;2022-10-15T16:02:27;7.80;;;3.83;;
32932;SDS011;19444;50.518;10.870;2022-10-15T16:05:23;4.60;;;3.17;;
32932;SDS011;19444;50.518;10.870;2022-10-15T16:08:21;9.52;;;5.00;;
32932;SDS011;19444;50.518;10.870;2022-10-15T16:11:17;4.25;;;3.50;;
32932;SDS011;19444;50.518;10.870;2022-10-15T16:14:15;6.10;;;3.60;;
32932;SDS011;19444;50.518;10.870;2022-10-15T16:17:12;9.23;;;5.20;;
32932;SDS011;19444;50.518;10.870;2022-10-15T16:20:09;5.82;;;5.03;;
32932;SDS011;19444;50.518;10.870;2022-10-15T16:23:07;1.90;;;1.55;;
32932;SDS011;19444;50.518;10.870;2022-10-15T16:26:04;4.30;;;3.17;;
32932;SDS011;19444;50.518;10.870;2022-10-15T16:29:00;3.75;;;2.53;;
32932;SDS011;19444;50.518;10.870;2022-10-15T16:31:57;3.80;;;2.40;;
32932;SDS011;19444;50.518;10.870;2022-10-15T16:34:54;2.78;;;2.45;;
32932;SDS011;19444;50.518;10.870;2022-10-15T16:37:51;4.18;;;2.85;;
32932;SDS011;19444;50.518;10.870;2022-10-15T16:40:51;4.53;;;2.38;;
32932;SDS011;19444;50.518;10.870;2022-10-15T16:43:48;4.05;;;2.80;;
32932;SDS011;19444;50.518;10.870;2022-10-15T16:46:45;7.47;;;5.03;;
32932;SDS011;19444;50.518;10.870;2022-10-15T16:49:42;5.18;;;3.70;;
32932;SDS011;19444;50.518;10.870;2022-10-15T16:52:39;2.60;;;2.00;;
32932;SDS011;19444;50.518;10.870;2022-10-15T16:55:36;3.55;;;2.33;;
32932;SDS011;19444;50.518;10.870;2022-10-15T16:58:33;8.35;;;2.70;;
32932;SDS011;19444;50.518;10.870;2022-10-15T17:01:30;4.40;;;2.38;;
32932;SDS011;19444;50.518;10.870;2022-10-15T17:04:27;1.92;;;1.38;;
32932;SDS011;19444;50.518;10.870;2022-10-15T17:07:24;3.85;;;2.47;;
32932;SDS011;19444;50.518;10.870;2022-10-15T17:10:22;2.15;;;1.60;;
32932;SDS011;19444;50.518;10.870;2022-10-15T17:13:21;2.88;;;2.03;;
32932;SDS011;19444;50.518;10.870;2022-10-15T17:16:19;15.13;;;8.80;;
32932;SDS011;19444;50.518;10.870;2022-10-15T17:19:23;7.90;;;5.68;;
32932;SDS011;19444;50.518;10.870;2022-10-15T17:22:26;7.18;;;5.30;;
32932;SDS011;19444;50.518;10.870;2022-10-15T17:25:23;7.40;;;6.10;;
32932;SDS011;19444;50.518;10.870;2022-10-15T17:28:20;7.40;;;4.68;;
32932;SDS011;19444;50.518;10.870;2022-10-15T17:31:18;11.65;;;6.80;;
32932;SDS011;19444;50.518;10.870;2022-10-15T17:37:16;2.95;;;1.80;;
32932;SDS011;19444;50.518;10.870;2022-10-15T17:40:13;2.17;;;1.98;;
32932;SDS011;19444;50.518;10.870;2022-10-15T17:43:10;4.75;;;1.90;;
32932;SDS011;19444;50.518;10.870;2022-10-15T17:46:09;2.35;;;1.60;;
32932;SDS011;19444;50.518;10.870;2022-10-15T17:49:10;2.90;;;1.70;;
32932;SDS011;19444;50.518;10.870;2022-10-15T17:52:10;2.67;;;1.60;;
32932;SDS011;19444;50.518;10.870;2022-10-15T17:55:07;1.75;;;1.23;;
32932;SDS011;19444;50.518;10.870;2022-10-15T17:58:04;2.22;;;1.00;;
32932;SDS011;19444;50.518;10.870;2022-10-15T18:01:02;2.97;;;1.70;;
32932;SDS011;19444;50.518;10.870;2022-10-15T18:03:59;2.38;;;1.15;;
32932;SDS011;19444;50.518;10.870;2022-10-15T18:06:56;4.30;;;1.60;;
32932;SDS011;19444;50.518;10.870;2022-10-15T18:09:54;2.00;;;1.13;;
32932;SDS011;19444;50.518;10.870;2022-10-15T18:12:50;2.42;;;1.50;;
32932;SDS011;19444;50.518;10.870;2022-10-15T18:15:48;2.50;;;1.00;;
32932;SDS011;19444;50.518;10.870;2022-10-15T18:18:45;2.30;;;1.05;;
32932;SDS011;19444;50.518;10.870;2022-10-15T18:21:42;2.35;;;1.52;;
32932;SDS011;19444;50.518;10.870;2022-10-15T18:24:45;3.05;;;1.95;;
32932;SDS011;19444;50.518;10.870;2022-10-15T18:27:41;3.50;;;2.50;;
32932;SDS011;19444;50.518;10.870;2022-10-15T18:30:39;2.40;;;1.10;;
32932;SDS011;19444;50.518;10.870;2022-10-15T18:33:38;5.57;;;1.45;;
32932;SDS011;19444;50.518;10.870;2022-10-15T18:36:35;3.72;;;2.05;;
32932;SDS011;19444;50.518;10.870;2022-10-15T18:39:36;4.57;;;2.83;;
32932;SDS011;19444;50.518;10.870;2022-10-15T18:42:33;4.03;;;1.40;;
32932;SDS011;19444;50.518;10.870;2022-10-15T18:45:30;3.65;;;1.25;;
32932;SDS011;19444;50.518;10.870;2022-10-15T18:48:27;1.52;;;1.10;;
32932;SDS011;19444;50.518;10.870;2022-10-15T18:51:28;3.63;;;1.15;;
32932;SDS011;19444;50.518;10.870;2022-10-15T18:54:25;2.58;;;1.10;;
32932;SDS011;19444;50.518;10.870;2022-10-15T18:57:23;1.40;;;0.90;;
32932;SDS011;19444;50.518;10.870;2022-10-15T19:00:20;1.05;;;0.85;;
32932;SDS011;19444;50.518;10.870;2022-10-15T19:03:17;2.42;;;1.08;;
32932;SDS011;19444;50.518;10.870;2022-10-15T19:06:13;3.28;;;0.73;;
32932;SDS011;19444;50.518;10.870;2022-10-15T19:09:12;2.40;;;0.75;;
32932;SDS011;19444;50.518;10.870;2022-10-15T19:12:11;4.35;;;1.00;;
32932;SDS011;19444;50.518;10.870;2022-10-15T19:15:08;2.08;;;1.02;;
32932;SDS011;19444;50.518;10.870;2022-10-15T19:18:06;1.77;;;0.90;;
32932;SDS011;19444;50.518;10.870;2022-10-15T19:21:06;0.98;;;0.70;;
32932;SDS011;19444;50.518;10.870;2022-10-15T19:24:05;2.30;;;1.05;;
32932;SDS011;19444;50.518;10.870;2022-10-15T19:27:02;3.35;;;1.63;;
32932;SDS011;19444;50.518;10.870;2022-10-15T19:29:59;1.95;;;0.70;;
32932;SDS011;19444;50.518;10.870;2022-10-15T19:32:56;2.53;;;1.15;;
32932;SDS011;19444;50.518;10.870;2022-10-15T19:35:53;1.98;;;1.10;;
32932;SDS011;19444;50.518;10.870;2022-10-15T19:38:51;1.95;;;0.90;;
32932;SDS011;19444;50.518;10.870;2022-10-15T19:41:48;3.10;;;0.90;;
32932;SDS011;19444;50.518;10.870;2022-10-15T19:44:47;3.10;;;1.40;;
32932;SDS011;19444;50.518;10.870;2022-10-15T19:47:44;2.95;;;0.60;;
32932;SDS011;19444;50.518;10.870;2022-10-15T19:50:42;1.98;;;0.60;;